Terminal Aerodrome Forecast
Issued by NWS Wichita, KS

Home | Current Version | Previous Version | Text Only | Print | Product List | Glossary On
Versions: 1 2 3 4 5 6 7 8 9 10 11 12 13 14 15 16 17 18 19 20 21 22 23 24 25 26 27 28 29 30 31 32
000
FTUS43 KICT 191352 AAA
TAFICT
TAF AMD
KICT 191352Z 1914/2012 VRB04KT 4SM BR OVC004
     FM191800 18005KT P6SM OVC007
     FM192100 18005KT P6SM BKN012
     FM200300 19005KT 3SM BR BKN015=

USA.gov is the U.S. government's official web portal to all federal, state and local government web resources and services.